createdAt,value
2019-03-05T00:01:47.262Z,6.40
2019-03-05T00:04:15.497Z,6.40
2019-03-05T00:06:43.716Z,6.40
2019-03-05T00:09:13.589Z,6.40
2019-03-05T00:11:41.833Z,6.40
2019-03-05T00:14:10.068Z,6.40
2019-03-05T00:16:38.334Z,6.50
2019-03-05T00:19:06.557Z,6.50
2019-03-05T00:21:34.812Z,6.50
2019-03-05T00:24:39.871Z,6.50
2019-03-05T00:27:08.119Z,6.50
2019-03-05T00:29:45.075Z,6.60
2019-03-05T00:32:13.291Z,6.60
2019-03-05T00:34:59.838Z,6.50
2019-03-05T00:37:31.324Z,6.50
2019-03-05T00:40:17.334Z,6.50
2019-03-05T00:43:00.808Z,6.50
2019-03-05T00:45:37.769Z,6.50
2019-03-05T00:48:17.501Z,6.50
2019-03-05T00:50:54.992Z,6.50
2019-03-05T00:53:55.128Z,6.50
2019-03-05T00:56:38.239Z,6.50
2019-03-05T00:59:33.610Z,6.60
2019-03-05T01:02:11.135Z,6.60
2019-03-05T01:05:03.915Z,6.60
2019-03-05T01:07:32.226Z,6.60
2019-03-05T01:10:00.483Z,6.70
2019-03-05T01:12:29.002Z,6.60
2019-03-05T01:14:58.863Z,6.60
2019-03-05T01:17:27.112Z,6.60
2019-03-05T01:19:55.369Z,6.70
2019-03-05T01:22:23.613Z,6.70
2019-03-05T01:24:51.830Z,6.70
2019-03-05T01:27:20.059Z,6.70
2019-03-05T01:29:48.278Z,6.60
2019-03-05T01:32:18.167Z,6.60
2019-03-05T01:34:57.000Z,6.60
2019-03-05T01:37:25.466Z,6.60
2019-03-05T01:39:55.350Z,6.60
2019-03-05T01:42:23.576Z,6.50
2019-03-05T01:44:51.819Z,6.40
2019-03-05T01:47:20.140Z,6.30
2019-03-05T01:49:49.291Z,6.30
2019-03-05T01:52:17.534Z,6.20
2019-03-05T01:54:45.775Z,6.10
2019-03-05T01:57:14.001Z,6.10
2019-03-05T01:59:42.269Z,6.10
2019-03-05T02:02:10.683Z,6.10
2019-03-05T02:04:38.916Z,6.10
2019-03-05T02:07:07.221Z,6.10
2019-03-05T02:09:35.442Z,6.20
2019-03-05T02:12:03.669Z,6.10
2019-03-05T02:14:31.894Z,6.00
2019-03-05T02:17:00.145Z,6.00
2019-03-05T02:19:42.360Z,5.90
2019-03-05T02:22:19.692Z,5.80
2019-03-05T02:25:14.738Z,5.90
2019-03-05T02:28:06.858Z,5.80
2019-03-05T02:30:53.144Z,5.80
2019-03-05T02:33:44.769Z,5.80
2019-03-05T02:36:25.014Z,5.80
2019-03-05T02:39:11.397Z,5.80
2019-03-05T02:41:51.871Z,5.70
2019-03-05T02:44:29.487Z,5.80
2019-03-05T02:47:03.982Z,5.70
2019-03-05T02:49:47.364Z,5.70
2019-03-05T02:52:24.605Z,5.80
2019-03-05T02:55:11.534Z,5.70
2019-03-05T02:57:38.930Z,5.80
2019-03-05T03:00:10.717Z,5.90
2019-03-05T03:02:40.649Z,5.90
2019-03-05T03:05:16.783Z,5.80
2019-03-05T03:07:45.018Z,5.90
2019-03-05T03:10:18.416Z,5.90
2019-03-05T03:12:46.643Z,5.90
2019-03-05T03:15:14.864Z,5.90
2019-03-05T03:17:46.400Z,5.90
2019-03-05T03:20:15.471Z,5.80
2019-03-05T03:22:43.703Z,5.80
2019-03-05T03:25:14.875Z,5.70
2019-03-05T03:27:43.242Z,5.70
2019-03-05T03:30:13.713Z,5.60
2019-03-05T03:32:41.920Z,5.60
2019-03-05T03:35:11.795Z,5.60
2019-03-05T03:37:40.006Z,5.50
2019-03-05T03:40:11.667Z,5.50
2019-03-05T03:42:39.891Z,5.50
2019-03-05T03:45:11.219Z,5.40
2019-03-05T03:47:38.756Z,5.40
2019-03-05T03:50:07.356Z,5.40
2019-03-05T03:52:35.585Z,5.40
2019-03-05T03:55:04.261Z,5.40
2019-03-05T03:57:32.481Z,5.50
2019-03-05T04:00:00.950Z,5.50
2019-03-05T04:02:29.188Z,5.50
2019-03-05T04:04:57.734Z,5.50
2019-03-05T04:07:25.993Z,5.50
2019-03-05T04:09:54.227Z,5.50
2019-03-05T04:12:22.457Z,5.50
2019-03-05T04:14:50.709Z,5.50
2019-03-05T04:17:18.919Z,5.50
2019-03-05T04:19:47.169Z,5.50
2019-03-05T04:22:15.397Z,5.50
2019-03-05T04:24:43.621Z,5.50
2019-03-05T04:27:11.859Z,5.50
2019-03-05T04:29:40.077Z,5.50
2019-03-05T04:32:08.307Z,5.60
2019-03-05T04:34:36.537Z,5.60
2019-03-05T04:37:04.774Z,5.60
2019-03-05T04:39:32.982Z,5.60
2019-03-05T04:42:01.285Z,5.60
2019-03-05T04:44:31.891Z,5.60
2019-03-05T04:47:00.385Z,5.70
2019-03-05T04:49:32.965Z,5.70
2019-03-05T04:52:02.913Z,5.80
2019-03-05T04:54:31.127Z,5.80
2019-03-05T04:56:59.361Z,5.80
2019-03-05T04:59:27.587Z,5.80
2019-03-05T05:01:55.830Z,5.80
2019-03-05T05:04:24.051Z,5.80
2019-03-05T05:06:52.311Z,5.90
2019-03-05T05:09:20.535Z,5.90
2019-03-05T05:11:48.793Z,6.00
2019-03-05T05:14:17.014Z,6.00
2019-03-05T05:16:45.240Z,6.00
2019-03-05T05:19:13.471Z,6.10
2019-03-05T05:21:41.693Z,6.00
2019-03-05T05:24:10.002Z,6.10
2019-03-05T05:26:38.226Z,6.10
2019-03-05T05:29:06.462Z,6.20
2019-03-05T05:31:34.709Z,6.20
2019-03-05T05:34:03.232Z,6.30
2019-03-05T05:36:31.434Z,6.30
2019-03-05T05:38:59.700Z,6.30
2019-03-05T05:41:27.940Z,6.20
2019-03-05T05:43:56.156Z,6.30
2019-03-05T05:46:24.392Z,6.30
2019-03-05T05:48:52.630Z,6.30
2019-03-05T05:51:20.865Z,6.20
2019-03-05T05:53:49.192Z,6.20
2019-03-05T05:56:17.456Z,6.10
2019-03-05T05:58:45.697Z,6.10
2019-03-05T06:01:13.941Z,6.10
2019-03-05T06:03:42.166Z,6.00
2019-03-05T06:06:10.423Z,6.00
2019-03-05T06:08:38.648Z,6.00
2019-03-05T06:11:06.860Z,6.00
2019-03-05T06:13:35.687Z,6.00
2019-03-05T06:16:03.903Z,6.00
2019-03-05T06:18:32.142Z,5.90
2019-03-05T06:21:00.377Z,5.90
2019-03-05T06:23:28.608Z,5.90
2019-03-05T06:25:56.830Z,5.90
2019-03-05T06:28:25.068Z,5.80
2019-03-05T06:30:53.288Z,5.80
2019-03-05T06:33:21.539Z,5.80
2019-03-05T06:35:49.760Z,5.70
2019-03-05T06:38:18.001Z,5.70
2019-03-05T06:40:46.244Z,5.70
2019-03-05T06:43:14.480Z,5.70
2019-03-05T06:45:42.718Z,5.70
2019-03-05T06:48:10.982Z,5.60
2019-03-05T06:50:39.199Z,5.50
2019-03-05T06:53:08.227Z,5.40
2019-03-05T06:55:36.518Z,5.30
2019-03-05T06:58:04.744Z,5.30
2019-03-05T07:00:42.611Z,5.20
2019-03-05T07:03:10.855Z,5.20
2019-03-05T07:06:15.475Z,5.10
2019-03-05T07:08:52.806Z,5.00
2019-03-05T07:11:48.282Z,5.00
2019-03-05T07:14:43.150Z,5.00
2019-03-05T07:17:17.423Z,5.00
2019-03-05T07:20:05.164Z,5.00
2019-03-05T07:22:45.529Z,5.00
2019-03-05T07:25:13.778Z,5.00
2019-03-05T07:27:42.008Z,5.00
2019-03-05T07:30:13.839Z,5.00
2019-03-05T07:32:42.074Z,5.10
2019-03-05T07:35:15.700Z,5.10
2019-03-05T07:37:43.989Z,5.30
2019-03-05T07:40:14.232Z,5.30
2019-03-05T07:42:42.491Z,5.30
2019-03-05T07:45:12.050Z,5.40
2019-03-05T07:47:40.308Z,5.30
2019-03-05T07:50:10.889Z,5.30
2019-03-05T07:52:39.132Z,5.30
2019-03-05T07:55:13.781Z,5.40
2019-03-05T07:57:40.363Z,5.30
2019-03-05T08:00:13.966Z,5.30
2019-03-05T08:02:42.427Z,5.30
2019-03-05T08:05:12.607Z,5.30
2019-03-05T08:07:40.866Z,5.30
2019-03-05T08:10:21.165Z,5.40
2019-03-05T08:13:16.795Z,5.40
2019-03-05T08:16:11.852Z,5.50
2019-03-05T08:18:40.099Z,5.50
2019-03-05T08:21:08.375Z,5.40
2019-03-05T08:23:36.606Z,5.50
2019-03-05T08:26:04.854Z,5.50
2019-03-05T08:28:33.075Z,5.50
2019-03-05T08:31:01.310Z,5.70
2019-03-05T08:33:29.520Z,5.80
2019-03-05T08:35:57.739Z,5.80
2019-03-05T08:38:25.978Z,5.80
2019-03-05T08:40:54.230Z,5.90
2019-03-05T08:43:22.488Z,5.80
2019-03-05T08:45:50.695Z,5.80
2019-03-05T08:48:18.931Z,5.80
2019-03-05T08:50:47.172Z,5.90
2019-03-05T08:53:15.653Z,5.90
2019-03-05T08:55:43.947Z,6.00
2019-03-05T08:58:12.200Z,6.00
2019-03-05T09:00:40.422Z,6.00
2019-03-05T09:03:08.671Z,6.00
2019-03-05T09:05:36.939Z,6.20
2019-03-05T09:08:06.179Z,6.20
2019-03-05T09:10:34.413Z,6.20
2019-03-05T09:13:02.622Z,6.30
2019-03-05T09:15:30.892Z,6.40
2019-03-05T09:17:59.137Z,6.50
2019-03-05T09:20:27.359Z,6.50
2019-03-05T09:22:55.649Z,6.60
2019-03-05T09:25:23.916Z,6.80
2019-03-05T09:27:52.200Z,6.80
2019-03-05T09:30:21.387Z,7.00
2019-03-05T09:32:49.685Z,7.10
2019-03-05T09:35:18.277Z,7.20
2019-03-05T09:37:46.580Z,7.30
2019-03-05T09:40:25.855Z,7.40
2019-03-05T09:42:54.090Z,7.50
2019-03-05T09:45:22.315Z,7.70
2019-03-05T09:47:50.615Z,7.80
2019-03-05T09:50:19.797Z,7.90
2019-03-05T09:52:54.907Z,7.90
2019-03-05T09:55:20.541Z,7.90
2019-03-05T09:58:06.901Z,8.10
2019-03-05T10:00:26.852Z,8.10
2019-03-05T10:02:55.218Z,8.00
2019-03-05T10:05:23.737Z,8.00
2019-03-05T10:07:52.075Z,8.10
2019-03-05T10:10:25.927Z,8.20
2019-03-05T10:12:54.315Z,8.20
2019-03-05T10:15:23.064Z,8.20
2019-03-05T10:17:51.388Z,8.30
2019-03-05T10:20:24.298Z,8.30
2019-03-05T10:22:52.719Z,8.30
2019-03-05T10:25:23.269Z,8.50
2019-03-05T10:27:51.710Z,8.60
2019-03-05T10:30:25.150Z,8.60
2019-03-05T10:32:52.587Z,8.60
2019-03-05T10:37:44.064Z,8.70
2019-03-05T10:40:20.966Z,9.00
2019-03-05T10:42:49.219Z,9.30
2019-03-05T10:45:18.901Z,9.90
2019-03-05T10:47:49.377Z,10.10
2019-03-05T10:50:20.250Z,10.00
2019-03-05T10:52:48.831Z,10.10
2019-03-05T10:55:25.861Z,10.00
2019-03-05T10:57:47.044Z,9.70
2019-03-05T11:00:38.791Z,9.50
2019-03-05T11:03:07.053Z,9.70
2019-03-05T11:05:37.137Z,9.80
2019-03-05T11:08:07.193Z,9.70
2019-03-05T11:10:35.599Z,10.00
2019-03-05T11:13:07.356Z,10.20
2019-03-05T11:15:36.255Z,10.40
2019-03-05T11:18:07.778Z,10.40
2019-03-05T11:20:35.403Z,10.50
2019-03-05T11:23:03.970Z,10.60
2019-03-05T11:25:32.233Z,10.60
2019-03-05T11:28:00.478Z,10.30
2019-03-05T11:30:36.366Z,10.10
2019-03-05T11:33:04.599Z,10.00
2019-03-05T11:35:33.597Z,9.90
2019-03-05T11:38:01.929Z,10.00
2019-03-05T11:40:30.481Z,10.00
2019-03-05T11:43:00.357Z,10.50
2019-03-05T11:45:29.234Z,10.90
2019-03-05T11:47:57.588Z,11.40
2019-03-05T11:50:25.970Z,11.70
2019-03-05T11:52:58.739Z,11.70
2019-03-05T11:55:28.520Z,11.60
2019-03-05T11:57:57.479Z,11.50
2019-03-05T12:00:48.481Z,11.90
2019-03-05T12:03:16.833Z,12.10
2019-03-05T12:05:45.089Z,12.00
2019-03-05T12:08:13.341Z,12.10
2019-03-05T12:10:41.594Z,12.70
2019-03-05T12:13:09.908Z,12.80
2019-03-05T12:15:39.887Z,12.50
2019-03-05T12:18:08.143Z,12.00
2019-03-05T12:20:36.387Z,12.30
2019-03-05T12:23:06.701Z,12.90
2019-03-05T12:25:36.141Z,13.80
2019-03-05T12:28:10.158Z,14.10
2019-03-05T12:30:35.343Z,14.30
2019-03-05T12:33:03.599Z,14.20
2019-03-05T12:35:31.896Z,14.20
2019-03-05T12:38:00.170Z,14.30
2019-03-05T12:40:28.591Z,15.20
2019-03-05T12:42:56.879Z,16.00
2019-03-05T12:45:25.420Z,16.40
2019-03-05T12:47:53.661Z,16.60
2019-03-05T12:50:27.220Z,16.70
2019-03-05T12:52:56.237Z,16.10
2019-03-05T12:55:24.584Z,16.10
2019-03-05T12:57:52.826Z,15.60
2019-03-05T13:00:27.888Z,15.80
2019-03-05T13:02:56.602Z,16.20
2019-03-05T13:05:24.853Z,15.50
2019-03-05T13:07:56.630Z,15.10
2019-03-05T13:10:34.917Z,15.00
2019-03-05T13:13:00.281Z,15.40
2019-03-05T13:15:35.108Z,15.20
2019-03-05T13:18:03.413Z,15.00
2019-03-05T13:20:32.572Z,15.20
2019-03-05T13:23:00.853Z,15.10
2019-03-05T13:25:29.945Z,15.10
2019-03-05T13:28:02.129Z,14.60
2019-03-05T13:30:30.478Z,14.10
2019-03-05T13:33:00.552Z,13.40
2019-03-05T13:35:30.316Z,12.80
2019-03-05T13:38:07.488Z,12.60
2019-03-05T13:40:38.090Z,12.10
2019-03-05T13:43:04.152Z,11.70
2019-03-05T13:45:32.409Z,11.60
2019-03-05T13:48:09.770Z,11.70
2019-03-05T13:51:02.361Z,11.90
2019-03-05T13:53:45.567Z,12.10
2019-03-05T13:56:42.349Z,12.30
2019-03-05T13:59:34.439Z,12.20
2019-03-05T14:02:02.786Z,12.00
2019-03-05T14:04:50.972Z,11.90
2019-03-05T14:07:44.726Z,11.80
2019-03-05T14:10:12.978Z,11.90
2019-03-05T14:12:42.661Z,11.90
2019-03-05T14:15:15.252Z,12.00
2019-03-05T14:17:44.801Z,11.80
2019-03-05T14:20:15.777Z,11.60
2019-03-05T14:22:47.117Z,11.40
2019-03-05T14:25:19.067Z,11.20
2019-03-05T14:27:48.956Z,11.10
2019-03-05T14:30:24.676Z,11.00
2019-03-05T14:32:53.121Z,10.90
2019-03-05T14:35:22.998Z,10.80
2019-03-05T14:37:58.729Z,10.80
2019-03-05T14:40:30.038Z,10.80
2019-03-05T14:42:59.207Z,10.80
2019-03-05T14:45:30.157Z,10.80
2019-03-05T14:48:04.247Z,10.90
2019-03-05T14:50:35.300Z,11.00
2019-03-05T14:53:13.501Z,10.90
2019-03-05T14:55:41.774Z,10.90
2019-03-05T14:58:10.546Z,10.80
2019-03-05T15:00:42.457Z,10.80
2019-03-05T15:03:12.695Z,11.10
2019-03-05T15:05:49.701Z,11.40
2019-03-05T15:08:17.915Z,11.50
2019-03-05T15:10:55.077Z,11.60
2019-03-05T15:13:28.923Z,11.60
2019-03-05T15:15:58.775Z,11.50
2019-03-05T15:18:27.299Z,11.40
2019-03-05T15:20:55.735Z,11.20
2019-03-05T15:23:24.808Z,10.90
2019-03-05T15:25:54.929Z,10.90
2019-03-05T15:28:25.496Z,10.80
2019-03-05T15:31:02.940Z,10.80
2019-03-05T15:33:33.938Z,10.90
2019-03-05T15:36:04.957Z,10.90
2019-03-05T15:38:34.343Z,11.00
2019-03-05T15:41:06.759Z,11.10
2019-03-05T15:43:41.178Z,11.10
2019-03-05T15:46:11.183Z,11.10
2019-03-05T15:48:41.283Z,11.00
2019-03-05T15:51:12.207Z,11.00
2019-03-05T15:56:15.143Z,11.00
2019-03-05T15:58:43.421Z,11.00
2019-03-05T16:01:21.926Z,10.90
2019-03-05T16:03:47.410Z,10.90
2019-03-05T16:06:15.667Z,11.00
2019-03-05T16:08:47.435Z,11.00
2019-03-05T16:11:18.749Z,11.00
2019-03-05T16:13:56.434Z,10.90
2019-03-05T16:16:28.269Z,10.80
2019-03-05T16:19:02.347Z,10.60
2019-03-05T16:21:32.302Z,10.60
2019-03-05T16:24:02.843Z,10.50
2019-03-05T16:26:33.913Z,10.50
2019-03-05T16:29:07.891Z,10.50
2019-03-05T16:31:45.322Z,10.40
2019-03-05T16:34:27.686Z,10.40
2019-03-05T16:37:16.748Z,10.30
2019-03-05T16:42:53.653Z,10.10
2019-03-05T16:45:23.547Z,9.90
2019-03-05T16:47:53.509Z,9.80
2019-03-05T16:50:23.412Z,9.60
2019-03-05T16:53:02.320Z,9.40
2019-03-05T16:55:34.783Z,9.30
2019-03-05T16:58:21.092Z,9.10
2019-03-05T17:00:54.095Z,9.00
2019-03-05T17:03:26.648Z,8.90
2019-03-05T17:05:56.554Z,8.80
2019-03-05T17:08:38.369Z,8.70
2019-03-05T17:11:10.737Z,8.60
2019-03-05T17:13:38.970Z,8.50
2019-03-05T17:16:07.191Z,8.40
2019-03-05T17:18:35.655Z,8.40
2019-03-05T17:21:03.906Z,8.30
2019-03-05T17:23:32.186Z,8.10
2019-03-05T17:26:00.460Z,8.00
2019-03-05T17:28:28.697Z,7.90
2019-03-05T17:30:56.962Z,7.80
2019-03-05T17:33:25.210Z,7.80
2019-03-05T17:35:53.473Z,7.80
2019-03-05T17:38:21.708Z,7.70
2019-03-05T17:40:49.969Z,7.60
2019-03-05T17:43:18.948Z,7.60
2019-03-05T17:45:47.208Z,7.50
2019-03-05T17:48:15.463Z,7.50
2019-03-05T17:50:43.728Z,7.40
2019-03-05T17:53:11.972Z,7.40
2019-03-05T17:55:40.251Z,7.40
2019-03-05T17:58:08.544Z,7.40
2019-03-05T18:00:41.147Z,7.40
2019-03-05T18:03:09.412Z,7.40
2019-03-05T18:05:37.643Z,7.40
2019-03-05T18:08:06.197Z,7.50
2019-03-05T18:10:34.435Z,7.60
2019-03-05T18:13:02.716Z,7.50
2019-03-05T18:15:31.142Z,7.50
2019-03-05T18:17:59.412Z,7.50
2019-03-05T18:20:27.691Z,7.50
2019-03-05T18:22:55.943Z,7.50
2019-03-05T18:25:24.284Z,7.50
2019-03-05T18:27:52.530Z,7.50
2019-03-05T18:30:26.644Z,7.50
2019-03-05T18:32:55.164Z,7.50
2019-03-05T18:35:23.413Z,7.50
2019-03-05T18:37:52.355Z,7.50
2019-03-05T18:40:21.622Z,7.50
2019-03-05T18:42:49.876Z,7.50
2019-03-05T18:45:24.214Z,7.50
2019-03-05T18:47:52.853Z,7.50
2019-03-05T18:50:21.758Z,7.50
2019-03-05T18:52:51.852Z,7.50
2019-03-05T18:55:24.355Z,7.40
2019-03-05T18:57:53.508Z,7.40
2019-03-05T19:00:25.267Z,7.30
2019-03-05T19:03:08.207Z,7.30
2019-03-05T19:05:36.806Z,7.20
2019-03-05T19:08:05.115Z,7.20
2019-03-05T19:10:33.365Z,7.10
2019-03-05T19:13:01.615Z,7.10
2019-03-05T19:15:30.129Z,7.00
2019-03-05T19:17:58.371Z,7.00
2019-03-05T19:20:28.000Z,6.90
2019-03-05T19:22:56.219Z,6.90
2019-03-05T19:25:29.791Z,6.80
2019-03-05T19:27:58.035Z,6.70
2019-03-05T19:30:32.312Z,6.70
2019-03-05T19:33:00.926Z,6.70
2019-03-05T19:35:29.314Z,6.60
2019-03-05T19:37:58.057Z,6.60
2019-03-05T19:40:37.756Z,6.60
2019-03-05T19:43:06.598Z,6.50
2019-03-05T19:45:34.961Z,6.50
2019-03-05T19:48:03.195Z,6.50
2019-03-05T19:50:31.514Z,6.40
2019-03-05T19:52:59.915Z,6.40
2019-03-05T19:55:29.188Z,6.40
2019-03-05T19:58:10.648Z,6.30
2019-03-05T20:00:47.115Z,6.20
2019-03-05T20:03:15.353Z,6.10
2019-03-05T20:05:43.888Z,6.00
2019-03-05T20:08:12.144Z,6.00
2019-03-05T20:10:40.396Z,6.00
2019-03-05T20:13:08.643Z,5.90
2019-03-05T20:15:37.021Z,6.00
2019-03-05T20:18:07.287Z,6.00
2019-03-05T20:20:35.980Z,5.90
2019-03-05T20:23:04.608Z,5.90
2019-03-05T20:25:32.937Z,5.80
2019-03-05T20:28:01.190Z,5.80
2019-03-05T20:30:29.434Z,5.70
2019-03-05T20:32:57.751Z,5.80
2019-03-05T20:35:26.017Z,5.80
2019-03-05T20:37:54.459Z,5.80
2019-03-05T20:40:29.576Z,5.80
2019-03-05T20:42:57.858Z,5.70
2019-03-05T20:45:41.059Z,5.70
2019-03-05T20:48:09.628Z,5.70
2019-03-05T20:50:37.871Z,5.60
2019-03-05T20:53:06.124Z,5.50
2019-03-05T20:55:34.392Z,5.40
2019-03-05T20:58:02.707Z,5.30
2019-03-05T21:00:36.279Z,5.30
2019-03-05T21:03:06.798Z,5.20
2019-03-05T21:05:37.202Z,5.20
2019-03-05T21:08:05.531Z,5.20
2019-03-05T21:10:33.750Z,5.30
2019-03-05T21:13:02.796Z,5.40
2019-03-05T21:15:33.051Z,5.40
2019-03-05T21:18:02.730Z,5.40
2019-03-05T21:20:31.890Z,5.50
2019-03-05T21:23:00.165Z,5.40
2019-03-05T21:25:28.674Z,5.40
2019-03-05T21:27:56.916Z,5.30
2019-03-05T21:30:26.513Z,5.20
2019-03-05T21:32:54.834Z,5.20
2019-03-05T21:35:23.171Z,5.20
2019-03-05T21:37:51.779Z,5.20
2019-03-05T21:40:24.433Z,5.10
2019-03-05T21:42:52.847Z,5.20
2019-03-05T21:45:24.374Z,5.20
2019-03-05T21:47:52.637Z,5.20
2019-03-05T21:50:20.866Z,5.10
2019-03-05T21:52:49.109Z,5.20
2019-03-05T21:55:17.415Z,5.10
2019-03-05T21:57:45.672Z,5.10
2019-03-05T22:00:20.063Z,5.20
2019-03-05T22:02:48.300Z,5.20
2019-03-05T22:05:16.551Z,5.30
2019-03-05T22:07:44.811Z,5.30
2019-03-05T22:10:15.562Z,5.30
2019-03-05T22:12:43.871Z,5.40
2019-03-05T22:15:14.478Z,5.40
2019-03-05T22:17:42.703Z,5.50
2019-03-05T22:20:13.542Z,5.50
2019-03-05T22:22:41.802Z,5.50
2019-03-05T22:25:18.351Z,5.60
2019-03-05T22:27:46.608Z,5.70
2019-03-05T22:30:22.612Z,5.80
2019-03-05T22:32:50.927Z,5.80
2019-03-05T22:35:19.322Z,5.90
2019-03-05T22:37:47.631Z,5.90
2019-03-05T22:40:17.732Z,5.90
2019-03-05T22:42:45.965Z,5.90
2019-03-05T22:45:18.903Z,6.00
2019-03-05T22:47:49.483Z,6.00
2019-03-05T22:50:17.369Z,6.00
2019-03-05T22:52:45.686Z,6.10
2019-03-05T22:55:15.262Z,6.10
2019-03-05T22:57:43.645Z,6.10
2019-03-05T23:00:31.839Z,6.20
2019-03-05T23:03:01.040Z,6.20
2019-03-05T23:05:29.350Z,6.30
2019-03-05T23:07:57.591Z,6.20
2019-03-05T23:10:25.878Z,6.30
2019-03-05T23:12:54.169Z,6.30
2019-03-05T23:15:22.434Z,6.30
2019-03-05T23:17:50.669Z,6.30
2019-03-05T23:20:18.910Z,6.40
2019-03-05T23:22:47.218Z,6.40
2019-03-05T23:25:16.615Z,6.40
2019-03-05T23:27:44.874Z,6.50
2019-03-05T23:30:18.499Z,6.50
2019-03-05T23:32:54.131Z,6.60
2019-03-05T23:35:22.386Z,6.60
2019-03-05T23:37:50.683Z,6.60
2019-03-05T23:40:18.956Z,6.60
2019-03-05T23:42:47.198Z,6.60
2019-03-05T23:45:19.044Z,6.70
2019-03-05T23:47:47.279Z,6.70
2019-03-05T23:50:17.460Z,6.70
2019-03-05T23:52:45.711Z,6.70
2019-03-05T23:55:14.420Z,6.70
2019-03-05T23:57:42.904Z,6.70
